YCIN

Details ICAO YCIN
Name Curtin
Region Australia
Timezone Australia/Perth (UTC+8.0)
Plans Departing 7
Arriving 10
Stats Elevation 300 ft / 91 m (AMSL)
Location -17.580430° 123.828553°
Runways 1
Magnetic Variation 2.006° E
Sunrise 2017-12-12 21:05:11 UTC / 2017-12-13 05:05:11 Local
Sunset 2017-12-13 10:15:07 UTC / 2017-12-13 18:15:07 Local
Advertisement - Login to hide

Runways

ID Width Length Bearing (true) Bearing (mag) Surface Threshold Offset Overrun Length
11 148 ft / 45 m 9,997 ft / 3,047 m 110.50° 108.49° Asphalt 0 ft / 0 m 177 ft / 54 m
29 148 ft / 45 m 9,997 ft / 3,047 m 290.50° 288.49° Asphalt 0 ft / 0 m 174 ft / 53 m

Map

Weather


0- 5 10 15 20 25 30 35+ Temperature / ° C

Clouds and Precipitation
Forecast for 2017-12-13 12:00 UTC. Updated 13 minutes ago

Ground ~20,000 ft ~40,000 ft Winds

METAR

YCIN 130900Z AUTO 27011KT 9999 // NCD 40/20 Q1002

TAF

TAF YCIN 130614Z 1308/1320 25012KT CAVOK FM131800 26008KT 9999 SCT010 PROB30 INTER 1308/1312 VRB25G45KT 3000 TSRA BKN030 FEW060CB

Frequencies

Unicom 126.70 MHz CTAF
Tower 118.30 MHz TWR
Warning: Do not use this data for real-world aviation or navigation. No guarantee of current accuracy is given.